Time;durP1;ratioP1;P1;durP2;ratioP2;P2;SDS_P1;SDS_P2;PMS_P1;PMS_P2;Temp;Humidity;BMP_temperature;BMP_pressure;BME280_temperature;BME280_humidity;BME280_pressure;Samples;Min_cycle;Max_cycle;Signal;HPM_P1;HPM_P2
2022/01/28 00:02:35;;;;;;;11.80;2.20;;;5.20;99.90;;;;;;6217712;23;20236;-59
2022/01/28 00:04:59;;;;;;;16.50;2.92;;;5.20;99.90;;;;;;6217723;23;20148;-60
2022/01/28 00:07:24;;;;;;;12.77;2.65;;;5.20;99.90;;;;;;6217630;23;20220;-61
2022/01/28 00:09:50;;;;;;;18.23;2.72;;;5.20;99.90;;;;;;6217437;23;20148;-60
2022/01/28 00:12:15;;;;;;;13.48;2.90;;;5.10;99.90;;;;;;6217257;23;20144;-61
2022/01/28 00:15:03;;;;;;;12.30;2.30;;;5.10;99.90;;;;;;6217875;23;20171;-61
2022/01/28 00:18:05;;;;;;;15.85;2.70;;;5.10;99.90;;;;;;6218027;23;20198;-60
2022/01/28 00:20:58;;;;;;;7.10;2.15;;;5.10;99.90;;;;;;6217281;23;20160;-60
2022/01/28 00:37:26;;;;;;;14.85;2.97;;;4.90;99.90;;;;;;6217190;23;20152;-61
2022/01/28 00:39:51;;;;;;;14.65;2.83;;;4.90;99.90;;;;;;6217594;23;20129;-60
2022/01/28 00:42:17;;;;;;;12.65;3.00;;;4.90;99.90;;;;;;6217251;23;20230;-60
2022/01/28 00:44:42;;;;;;;14.75;2.55;;;4.90;99.90;;;;;;6217431;23;20553;-60
2022/01/28 00:47:08;;;;;;;14.95;3.08;;;4.90;99.90;;;;;;6216955;23;20207;-60
2022/01/28 00:49:33;;;;;;;12.07;2.03;;;4.90;99.90;;;;;;6217155;23;20148;-59
2022/01/28 00:51:59;;;;;;;11.10;2.50;;;4.90;99.90;;;;;;6217830;23;20148;-60
2022/01/28 00:54:24;;;;;;;19.33;2.97;;;4.90;99.90;;;;;;6216988;23;20145;-59
2022/01/28 00:56:50;;;;;;;10.32;2.13;;;4.90;99.90;;;;;;6216931;23;20561;-60
2022/01/28 00:59:16;;;;;;;12.90;2.72;;;4.80;99.90;;;;;;6216853;23;20243;-60
2022/01/28 01:01:41;;;;;;;12.88;2.72;;;4.80;99.90;;;;;;6216866;23;20606;-60
2022/01/28 01:04:07;;;;;;;15.43;3.13;;;4.80;99.90;;;;;;6216930;23;20206;-59
2022/01/28 01:06:33;;;;;;;12.68;3.28;;;4.80;99.90;;;;;;6216856;23;20198;-61
2022/01/28 01:08:59;;;;;;;11.27;2.47;;;4.80;99.90;;;;;;6217017;23;20173;-61
2022/01/28 01:11:26;;;;;;;11.35;2.70;;;4.70;99.90;;;;;;6217070;23;20173;-61
2022/01/28 01:13:52;;;;;;;17.38;2.42;;;4.70;99.90;;;;;;6217097;23;20268;-61
2022/01/28 01:16:26;;;;;;;10.00;2.42;;;4.70;99.90;;;;;;6216937;23;20140;-61
2022/01/28 01:21:30;;;;;;;20.27;4.95;;;4.70;99.90;;;;;;6217148;23;20155;-59
2022/01/28 01:23:58;;;;;;;17.70;3.42;;;4.70;99.90;;;;;;6217115;23;20459;-60
2022/01/28 01:26:31;;;;;;;17.85;2.72;;;4.70;99.90;;;;;;6216592;23;20435;-62
2022/01/28 01:28:57;;;;;;;13.30;2.90;;;4.60;99.90;;;;;;6216893;23;20423;-61
2022/01/28 01:31:22;;;;;;;18.00;3.75;;;4.70;99.90;;;;;;6216920;23;20141;-61
2022/01/28 01:34:05;;;;;;;16.10;3.25;;;4.70;99.90;;;;;;6216829;23;20495;-60
2022/01/28 01:36:31;;;;;;;10.02;2.65;;;4.60;99.90;;;;;;6216879;23;20129;-61
2022/01/28 01:38:56;;;;;;;13.68;2.83;;;4.60;99.90;;;;;;6216469;23;20152;-61
2022/01/28 01:41:32;;;;;;;13.48;2.97;;;4.60;99.90;;;;;;6216449;23;20149;-61
2022/01/28 01:54:20;;;;;;;19.48;3.05;;;4.60;99.90;;;;;;6216456;23;20233;-61
2022/01/28 01:56:47;;;;;;;11.63;2.35;;;4.60;99.90;;;;;;6216370;23;20157;-61
2022/01/28 01:59:13;;;;;;;20.92;3.28;;;4.50;99.90;;;;;;6216226;23;20152;-60
2022/01/28 02:01:39;;;;;;;14.93;3.80;;;4.50;99.90;;;;;;6216205;23;20141;-61
2022/01/28 02:04:05;;;;;;;17.35;3.83;;;4.50;99.90;;;;;;6216483;23;20276;-61
2022/01/28 02:06:30;;;;;;;14.45;3.25;;;4.50;99.90;;;;;;6190187;23;20230;-61
2022/01/28 02:08:56;;;;;;;19.05;3.13;;;4.50;99.90;;;;;;6189977;23;20141;-61
2022/01/28 02:11:21;;;;;;;18.20;3.30;;;4.50;99.90;;;;;;6216481;23;20151;-61
2022/01/28 02:13:49;;;;;;;16.33;3.10;;;4.50;99.90;;;;;;6216251;23;20175;-60
2022/01/28 02:16:16;;;;;;;15.80;3.85;;;4.50;99.90;;;;;;6216235;23;20169;-61
2022/01/28 02:18:41;;;;;;;22.27;3.85;;;4.50;99.90;;;;;;6216213;23;20244;-61
2022/01/28 02:21:08;;;;;;;16.40;3.13;;;4.50;99.90;;;;;;6216249;23;20134;-61
2022/01/28 02:23:34;;;;;;;15.90;2.97;;;4.50;99.90;;;;;;6215911;23;20450;-61
2022/01/28 02:26:01;;;;;;;15.73;3.10;;;4.50;99.90;;;;;;6216566;23;20144;-61
2022/01/28 02:28:30;;;;;;;24.55;3.70;;;4.50;99.90;;;;;;6216523;23;20171;-60
2022/01/28 02:30:55;;;;;;;15.32;3.67;;;4.50;99.90;;;;;;6216853;23;20145;-61
2022/01/28 02:33:24;;;;;;;18.65;3.67;;;4.50;99.90;;;;;;6216044;23;20151;-61
2022/01/28 02:35:50;;;;;;;9.07;2.50;;;4.50;99.90;;;;;;6216426;23;20207;-62
2022/01/28 02:38:23;;;;;;;11.23;2.92;;;4.50;99.90;;;;;;6216033;23;20172;-62
2022/01/28 02:40:54;;;;;;;20.73;2.80;;;4.50;99.90;;;;;;6216393;23;20148;-61
2022/01/28 02:45:50;;;;;;;11.38;2.88;;;4.50;99.90;;;;;;6216437;23;20155;-61
2022/01/28 02:48:20;;;;;;;13.48;2.92;;;4.50;99.90;;;;;;6216226;23;20145;-61
2022/01/28 02:51:02;;;;;;;25.10;3.72;;;4.50;99.90;;;;;;6216343;23;20336;-60
2022/01/28 02:53:38;;;;;;;17.10;3.17;;;4.50;99.90;;;;;;6215903;23;20443;-60
2022/01/28 02:56:12;;;;;;;18.35;3.05;;;4.50;99.90;;;;;;6216648;23;20155;-59
2022/01/28 02:58:38;;;;;;;19.83;3.67;;;4.50;99.90;;;;;;6218303;23;20137;-59
2022/01/28 03:01:04;;;;;;;18.38;2.80;;;4.50;99.90;;;;;;6218249;23;20208;-59
2022/01/28 03:03:30;;;;;;;18.35;2.83;;;4.40;99.90;;;;;;6218195;23;20223;-59
2022/01/28 03:05:55;;;;;;;16.48;3.03;;;4.40;99.90;;;;;;6218181;23;20145;-59
2022/01/28 03:08:24;;;;;;;12.30;2.85;;;4.40;99.90;;;;;;6218364;23;20152;-60
2022/01/28 03:13:57;;;;;;;16.27;3.13;;;4.40;99.90;;;;;;6218030;23;20140;-60
2022/01/28 03:16:21;;;;;;;14.80;3.00;;;4.40;99.90;;;;;;6217929;23;20175;-60
2022/01/28 03:18:54;;;;;;;14.63;2.88;;;4.40;99.90;;;;;;6217922;23;20153;-60
2022/01/28 03:23:49;;;;;;;15.45;3.47;;;4.40;99.90;;;;;;6218108;23;20608;-60
2022/01/28 03:26:15;;;;;;;18.60;3.42;;;4.40;99.90;;;;;;6218194;23;20153;-61
2022/01/28 03:28:40;;;;;;;17.00;3.63;;;4.30;99.90;;;;;;6218031;23;20228;-61
2022/01/28 03:31:06;;;;;;;15.07;2.35;;;4.40;99.90;;;;;;6217887;23;20183;-60
2022/01/28 03:33:32;;;;;;;16.17;2.97;;;4.40;99.90;;;;;;6218164;23;20160;-61
2022/01/28 03:35:58;;;;;;;15.73;2.97;;;4.30;99.90;;;;;;6191394;23;20152;-61
2022/01/28 03:38:23;;;;;;;15.32;3.08;;;4.30;99.90;;;;;;6218189;23;20172;-61
2022/01/28 03:40:51;;;;;;;13.35;2.50;;;4.30;99.90;;;;;;6217921;23;20443;-61
2022/01/28 03:43:17;;;;;;;17.50;3.28;;;4.30;99.90;;;;;;6217609;23;20164;-61
2022/01/28 03:45:42;;;;;;;15.70;2.40;;;4.30;99.90;;;;;;6191513;23;20163;-61
2022/01/28 03:48:08;;;;;;;14.10;3.03;;;4.30;99.90;;;;;;6218015;23;20137;-61
2022/01/28 03:50:34;;;;;;;8.45;2.60;;;4.30;99.90;;;;;;6218022;23;20137;-60
2022/01/28 03:53:04;;;;;;;19.50;3.38;;;4.30;99.90;;;;;;6217845;23;20227;-60
2022/01/28 03:55:29;;;;;;;20.00;3.60;;;4.30;99.90;;;;;;6217664;23;20237;-60
2022/01/28 03:57:55;;;;;;;12.82;2.80;;;4.30;99.90;;;;;;6218005;23;20199;-60
2022/01/28 04:00:25;;;;;;;14.55;2.90;;;4.20;99.90;;;;;;6217709;23;20141;-61
2022/01/28 04:02:58;;;;;;;16.00;3.97;;;4.20;99.90;;;;;;6217919;23;20180;-60
2022/01/28 04:13:36;;;;;;;16.08;3.50;;;4.10;99.90;;;;;;6217539;23;20137;-60
2022/01/28 04:16:27;;;;;;;16.50;3.17;;;4.10;99.90;;;;;;6217479;23;20153;-60
2022/01/28 04:18:50;;;;;;;11.13;2.42;;;4.10;99.90;;;;;;6216877;23;20169;-60
2022/01/28 04:21:16;;;;;;;16.70;3.30;;;4.10;99.90;;;;;;6217582;23;20137;-60
2022/01/28 04:23:41;;;;;;;15.00;3.30;;;4.10;99.90;;;;;;6217391;23;20227;-61
2022/01/28 04:26:07;;;;;;;16.88;3.65;;;4.10;99.90;;;;;;6217151;23;20436;-61
2022/01/28 04:28:33;;;;;;;17.85;3.55;;;4.10;99.90;;;;;;6217316;23;20145;-61
2022/01/28 04:30:58;;;;;;;12.57;2.92;;;4.00;99.90;;;;;;6217012;23;20449;-60
2022/01/28 04:33:24;;;;;;;17.95;3.75;;;4.00;99.90;;;;;;6217163;23;20426;-61
2022/01/28 04:35:53;;;;;;;11.57;3.00;;;4.00;99.90;;;;;;6217333;23;20145;-60
2022/01/28 04:41:02;;;;;;;14.18;3.13;;;4.00;99.90;;;;;;6217581;23;20137;-61
2022/01/28 04:43:36;;;;;;;17.20;3.13;;;4.00;99.90;;;;;;6217418;23;20161;-60
2022/01/28 04:46:12;;;;;;;20.48;2.80;;;4.10;99.90;;;;;;6217405;23;20168;-60
2022/01/28 04:48:53;;;;;;;18.67;3.38;;;4.00;99.90;;;;;;6217621;23;20204;-60
2022/01/28 04:51:46;;;;;;;21.17;3.08;;;4.00;99.90;;;;;;6216973;23;20428;-60
2022/01/28 04:54:34;;;;;;;16.98;3.97;;;4.00;99.90;;;;;;6216821;23;20174;-60
2022/01/28 05:05:12;;;;;;;21.27;3.42;;;4.00;99.90;;;;;;6155605;23;20148;-61
2022/01/28 05:13:17;;;;;;;19.25;4.13;;;3.90;99.90;;;;;;6217197;23;20203;-61
2022/01/28 05:16:01;;;;;;;21.77;3.40;;;3.90;99.90;;;;;;6216537;23;20149;-61
2022/01/28 05:26:40;;;;;;;10.00;2.50;;;3.80;99.90;;;;;;6216585;23;20191;-60
2022/01/28 05:29:05;;;;;;;13.35;2.78;;;3.80;99.90;;;;;;6216904;23;20168;-60
2022/01/28 05:31:31;;;;;;;18.33;3.20;;;3.90;99.90;;;;;;6216517;23;20141;-58
2022/01/28 05:33:56;;;;;;;18.90;2.80;;;3.80;99.90;;;;;;6216752;23;20152;-59
2022/01/28 05:36:22;;;;;;;15.90;3.42;;;3.80;99.90;;;;;;6216983;23;20423;-60
2022/01/28 05:38:48;;;;;;;15.95;3.40;;;3.80;99.90;;;;;;6216913;23;20172;-59
2022/01/28 05:41:14;;;;;;;14.40;3.17;;;3.80;99.90;;;;;;6216702;23;20149;-60
2022/01/28 05:43:39;;;;;;;16.70;3.20;;;3.80;99.90;;;;;;6216791;23;20222;-60
2022/01/28 05:46:05;;;;;;;10.27;2.17;;;3.70;99.90;;;;;;6216489;23;20231;-62
2022/01/28 05:48:31;;;;;;;11.77;3.45;;;3.70;99.90;;;;;;6216796;23;20571;-59
2022/01/28 05:50:56;;;;;;;16.15;3.13;;;3.70;99.90;;;;;;6216311;23;20141;-60
2022/01/28 05:53:22;;;;;;;15.23;3.17;;;3.70;99.90;;;;;;6190149;23;20149;-61
2022/01/28 05:55:47;;;;;;;14.63;3.25;;;3.70;99.90;;;;;;6216288;23;20180;-61
2022/01/28 05:58:13;;;;;;;9.60;2.28;;;3.70;99.90;;;;;;6216321;23;20153;-61
2022/01/28 06:00:38;;;;;;;11.38;2.50;;;3.70;99.90;;;;;;6216191;23;20149;-61
2022/01/28 06:03:04;;;;;;;12.20;3.13;;;3.70;99.90;;;;;;6215662;23;20169;-62
2022/01/28 06:05:30;;;;;;;15.10;2.70;;;3.70;99.90;;;;;;6216197;23;20454;-61
2022/01/28 06:08:00;;;;;;;16.27;2.95;;;3.70;99.90;;;;;;6216396;23;20141;-61
2022/01/28 06:10:25;;;;;;;17.40;2.95;;;3.70;99.90;;;;;;6216202;23;20208;-61
2022/01/28 06:12:51;;;;;;;11.52;2.60;;;3.70;99.90;;;;;;6216583;23;20184;-61
2022/01/28 06:15:16;;;;;;;11.90;2.45;;;3.70;99.90;;;;;;6190302;23;20145;-61
2022/01/28 06:17:42;;;;;;;8.80;2.25;;;3.70;99.90;;;;;;6216168;23;20534;-61
2022/01/28 06:20:10;;;;;;;10.07;2.53;;;3.70;99.90;;;;;;6216575;23;20161;-61
2022/01/28 06:22:42;;;;;;;17.83;4.00;;;3.70;99.90;;;;;;6216299;23;20165;-60
2022/01/28 06:25:08;;;;;;;10.75;2.47;;;3.70;99.90;;;;;;6216194;23;20171;-61
2022/01/28 06:27:34;;;;;;;14.10;2.70;;;3.60;99.90;;;;;;6216391;23;20159;-61
2022/01/28 06:30:00;;;;;;;11.02;2.33;;;3.60;99.90;;;;;;6216088;23;20165;-61
2022/01/28 06:32:26;;;;;;;9.63;1.80;;;3.60;99.90;;;;;;6215949;23;20145;-61
2022/01/28 06:34:51;;;;;;;14.75;2.85;;;3.60;99.90;;;;;;6216094;23;20434;-61
2022/01/28 06:37:17;;;;;;;10.43;2.03;;;3.60;99.90;;;;;;6215992;23;20572;-61
2022/01/28 06:39:42;;;;;;;20.33;2.80;;;3.60;99.90;;;;;;6216103;23;20159;-61
2022/01/28 06:42:08;;;;;;;18.52;2.63;;;3.60;99.90;;;;;;6215695;23;20577;-61
2022/01/28 06:44:34;;;;;;;12.90;3.92;;;3.60;99.90;;;;;;6216353;23;20453;-61
2022/01/28 06:46:59;;;;;;;12.80;2.72;;;3.50;99.90;;;;;;6215920;23;20507;-61
2022/01/28 06:49:25;;;;;;;11.23;2.28;;;3.50;99.90;;;;;;6216414;23;20141;-61
2022/01/28 06:51:50;;;;;;;14.07;2.92;;;3.60;99.90;;;;;;6216026;23;20612;-61
2022/01/28 06:54:16;;;;;;;12.13;2.60;;;3.50;99.90;;;;;;6216164;23;20149;-60
2022/01/28 06:56:41;;;;;;;11.20;2.25;;;3.50;99.90;;;;;;6216229;23;20206;-61
2022/01/28 06:59:07;;;;;;;10.10;2.08;;;3.60;99.90;;;;;;6216016;23;20144;-61
2022/01/28 07:01:32;;;;;;;12.27;2.53;;;3.60;99.90;;;;;;6216414;23;20152;-61
2022/01/28 07:04:00;;;;;;;12.55;2.58;;;3.50;99.90;;;;;;6216066;23;20256;-61
2022/01/28 07:06:26;;;;;;;11.30;2.13;;;3.50;99.90;;;;;;6216232;23;20137;-60
2022/01/28 07:08:51;;;;;;;13.85;2.38;;;3.50;99.90;;;;;;6216032;23;20156;-60
2022/01/28 07:11:17;;;;;;;13.93;2.78;;;3.50;99.90;;;;;;6215918;23;20145;-60
2022/01/28 07:13:43;;;;;;;15.05;2.70;;;3.50;99.90;;;;;;6216169;23;20230;-60
2022/01/28 07:16:08;;;;;;;8.82;1.88;;;3.50;99.90;;;;;;6215928;23;20145;-59
2022/01/28 07:18:34;;;;;;;11.55;2.72;;;3.50;99.90;;;;;;6216245;23;20156;-60
2022/01/28 07:20:59;;;;;;;11.20;2.45;;;3.50;99.90;;;;;;6216015;23;20137;-60
2022/01/28 07:23:25;;;;;;;12.38;2.20;;;3.50;99.90;;;;;;6215688;23;20239;-60
2022/01/28 07:25:50;;;;;;;9.93;2.13;;;3.50;99.90;;;;;;6216009;23;20141;-60
2022/01/28 07:28:16;;;;;;;10.23;2.40;;;3.50;99.90;;;;;;6215571;23;20148;-60
2022/01/28 07:30:41;;;;;;;10.40;2.55;;;3.50;99.90;;;;;;6216212;23;20149;-60
2022/01/28 07:33:09;;;;;;;12.32;2.67;;;3.50;99.90;;;;;;6216131;23;20145;-61
2022/01/28 07:35:35;;;;;;;11.15;1.90;;;3.50;99.90;;;;;;6216077;23;20160;-60
2022/01/28 07:38:00;;;;;;;11.40;2.58;;;3.50;99.90;;;;;;6216014;23;20149;-60
2022/01/28 07:40:26;;;;;;;15.40;3.00;;;3.50;99.90;;;;;;6215789;23;20141;-60
2022/01/28 07:42:52;;;;;;;11.98;2.58;;;3.50;99.90;;;;;;6216074;23;20165;-60
2022/01/28 07:45:17;;;;;;;10.30;3.08;;;3.60;99.90;;;;;;6217774;23;20468;-61
2022/01/28 07:47:44;;;;;;;9.10;2.30;;;3.60;99.90;;;;;;6217587;23;20206;-61
2022/01/28 07:50:10;;;;;;;9.75;1.95;;;3.60;99.90;;;;;;6217510;23;20561;-60
2022/01/28 07:52:36;;;;;;;10.43;2.65;;;3.60;99.90;;;;;;6217293;23;20152;-60
2022/01/28 07:55:03;;;;;;;11.73;2.50;;;3.70;99.90;;;;;;6217476;23;20149;-61
2022/01/28 07:57:30;;;;;;;14.18;2.40;;;3.70;99.90;;;;;;6217220;23;20489;-62
2022/01/28 07:59:56;;;;;;;13.07;2.30;;;3.70;99.90;;;;;;6217781;23;20164;-61
2022/01/28 08:02:21;;;;;;;6.68;1.95;;;3.70;99.90;;;;;;6217741;23;20459;-61
2022/01/28 08:04:47;;;;;;;14.23;2.78;;;3.70;99.90;;;;;;6217757;23;20141;-61
2022/01/28 08:07:12;;;;;;;12.65;1.88;;;3.70;99.90;;;;;;6217665;23;20385;-61
2022/01/28 08:09:38;;;;;;;11.05;2.10;;;3.70;99.90;;;;;;6217285;23;20142;-60
2022/01/28 08:12:04;;;;;;;15.32;2.88;;;3.70;99.90;;;;;;6217316;23;20145;-60
2022/01/28 08:14:31;;;;;;;13.30;2.58;;;3.80;99.90;;;;;;6217138;23;20145;-60
2022/01/28 08:16:57;;;;;;;15.40;2.50;;;3.80;99.90;;;;;;6217442;23;20236;-60
2022/01/28 08:19:22;;;;;;;11.35;2.22;;;3.90;99.90;;;;;;6217322;23;20192;-61
2022/01/28 08:21:48;;;;;;;7.60;1.48;;;4.00;99.90;;;;;;6217463;23;20149;-61
2022/01/28 08:24:13;;;;;;;11.48;2.20;;;4.00;99.90;;;;;;6217143;23;20141;-60
2022/01/28 08:26:39;;;;;;;11.77;2.00;;;4.10;99.90;;;;;;6217011;23;20155;-60
2022/01/28 08:29:06;;;;;;;7.60;2.08;;;4.30;99.90;;;;;;6217017;23;20148;-61
2022/01/28 08:31:32;;;;;;;10.00;1.70;;;4.30;99.90;;;;;;6217376;23;20145;-61
2022/01/28 08:33:57;;;;;;;13.90;2.22;;;4.40;99.90;;;;;;6217303;23;20175;-61
2022/01/28 08:36:23;;;;;;;9.68;1.90;;;4.50;99.90;;;;;;6217107;23;20156;-61
2022/01/28 08:38:50;;;;;;;10.65;1.70;;;4.60;99.90;;;;;;6217073;23;20152;-61
2022/01/28 08:41:15;;;;;;;9.32;1.83;;;4.70;99.90;;;;;;6217352;23;20149;-60
2022/01/28 08:43:42;;;;;;;12.57;2.67;;;4.70;99.90;;;;;;6216781;23;20535;-61
2022/01/28 08:46:08;;;;;;;10.52;2.13;;;4.70;99.90;;;;;;6217428;23;20145;-61
2022/01/28 08:48:33;;;;;;;8.38;1.90;;;4.80;99.90;;;;;;6217471;23;20165;-60
2022/01/28 08:50:59;;;;;;;9.18;2.05;;;4.80;99.90;;;;;;6216826;23;20216;-60
2022/01/28 08:53:25;;;;;;;11.65;1.80;;;4.80;99.90;;;;;;6217137;23;20254;-61
2022/01/28 08:55:50;;;;;;;13.00;2.75;;;4.80;99.90;;;;;;6217147;23;20153;-61
2022/01/28 08:58:16;;;;;;;10.23;2.38;;;4.80;99.90;;;;;;6217004;23;20203;-60
2022/01/28 09:00:45;;;;;;;9.30;2.50;;;4.90;99.90;;;;;;6216960;23;20141;-60
2022/01/28 09:03:12;;;;;;;10.30;2.10;;;4.90;99.90;;;;;;6216616;23;20442;-60
2022/01/28 09:05:37;;;;;;;11.60;2.20;;;4.90;99.90;;;;;;6216646;23;20171;-60
2022/01/28 09:08:08;;;;;;;10.40;2.17;;;4.90;99.90;;;;;;6216411;23;20145;-60
2022/01/28 09:10:37;;;;;;;9.65;2.47;;;4.90;99.90;;;;;;6216905;23;20187;-62
2022/01/28 09:15:29;;;;;;;7.18;1.85;;;4.90;99.90;;;;;;6217201;23;20545;-61
2022/01/28 09:17:55;;;;;;;9.52;2.40;;;5.00;99.90;;;;;;6217224;23;20152;-61
2022/01/28 09:20:21;;;;;;;9.57;2.08;;;5.10;99.90;;;;;;6216561;23;20168;-61
2022/01/28 09:22:46;;;;;;;8.52;1.88;;;5.10;99.90;;;;;;6216657;23;20168;-60
2022/01/28 09:25:12;;;;;;;8.43;1.92;;;5.10;99.90;;;;;;6216767;23;20145;-61
2022/01/28 09:27:37;;;;;;;10.38;1.73;;;5.10;99.90;;;;;;6216471;23;20428;-61
2022/01/28 09:30:04;;;;;;;8.60;1.63;;;5.00;99.90;;;;;;6216543;23;20145;-61
2022/01/28 09:32:29;;;;;;;8.82;1.70;;;4.90;99.90;;;;;;6216926;23;20148;-60
2022/01/28 09:34:55;;;;;;;7.57;1.50;;;4.80;99.90;;;;;;6216336;23;20275;-61
2022/01/28 09:37:22;;;;;;;7.28;1.90;;;4.80;99.90;;;;;;6216941;23;20145;-61
2022/01/28 09:39:48;;;;;;;7.15;1.85;;;4.80;99.90;;;;;;6190353;23;20210;-61
2022/01/28 09:42:17;;;;;;;5.53;1.50;;;4.80;99.90;;;;;;6216568;23;20208;-60
2022/01/28 09:44:43;;;;;;;7.32;1.52;;;4.70;99.90;;;;;;6216618;23;20231;-61
2022/01/28 09:47:12;;;;;;;9.00;2.08;;;4.80;99.90;;;;;;6216372;23;20152;-62
2022/01/28 09:49:39;;;;;;;7.25;1.40;;;4.70;99.90;;;;;;6216300;23;20554;-62
2022/01/28 09:52:05;;;;;;;7.10;1.60;;;4.80;99.90;;;;;;6216191;23;20141;-63
2022/01/28 09:54:31;;;;;;;10.02;1.83;;;4.80;99.90;;;;;;6216388;23;20144;-62
2022/01/28 09:56:59;;;;;;;9.27;1.70;;;4.80;99.90;;;;;;6216453;23;20153;-62
2022/01/28 09:59:24;;;;;;;9.18;1.55;;;4.80;99.90;;;;;;6216071;23;20189;-63
2022/01/28 10:01:51;;;;;;;7.60;1.67;;;4.80;99.90;;;;;;6216062;23;20145;-63
2022/01/28 10:04:18;;;;;;;10.57;2.00;;;4.80;99.90;;;;;;6216820;23;20145;-63
2022/01/28 10:06:44;;;;;;;7.45;1.48;;;4.90;99.90;;;;;;6216415;23;20155;-62
2022/01/28 10:09:12;;;;;;;7.05;1.45;;;4.90;99.90;;;;;;6216064;23;20195;-62
2022/01/28 10:11:39;;;;;;;8.88;1.60;;;4.90;99.90;;;;;;6190331;23;20141;-62
2022/01/28 10:14:11;;;;;;;6.68;1.45;;;4.90;99.90;;;;;;6216364;23;20202;-63
2022/01/28 10:16:36;;;;;;;6.18;1.35;;;4.90;99.90;;;;;;6191488;23;20129;-63
2022/01/28 10:19:05;;;;;;;9.93;1.70;;;4.90;99.90;;;;;;6216055;23;20175;-62
2022/01/28 10:21:39;;;;;;;8.65;1.45;;;5.00;99.90;;;;;;6216062;23;20223;-63
2022/01/28 10:24:17;;;;;;;7.88;1.40;;;5.00;99.90;;;;;;6215732;23;20196;-63
2022/01/28 10:27:05;;;;;;;9.05;1.40;;;5.00;99.90;;;;;;6215878;23;20145;-63
2022/01/28 10:29:33;;;;;;;6.68;1.20;;;5.10;99.90;;;;;;6216234;23;20436;-61
2022/01/28 10:32:04;;;;;;;5.40;1.60;;;5.10;99.90;;;;;;6216150;23;20235;-62
2022/01/28 10:34:43;;;;;;;7.32;1.50;;;5.10;99.90;;;;;;6216246;23;20155;-63
2022/01/28 10:37:13;;;;;;;13.77;1.60;;;5.10;99.90;;;;;;6216208;23;20136;-63
2022/01/28 10:39:41;;;;;;;8.10;1.58;;;5.20;99.90;;;;;;6215789;23;20580;-62
2022/01/28 10:42:07;;;;;;;12.65;1.73;;;5.20;99.90;;;;;;6216135;23;20179;-62
2022/01/28 10:44:33;;;;;;;4.90;1.40;;;5.20;99.90;;;;;;6216159;23;20140;-62
2022/01/28 10:47:00;;;;;;;6.57;1.58;;;5.20;99.90;;;;;;6189768;23;20148;-62
2022/01/28 10:49:35;;;;;;;8.90;1.60;;;5.30;99.90;;;;;;6216062;23;20168;-62
2022/01/28 10:52:11;;;;;;;3.75;1.63;;;5.30;99.90;;;;;;6215887;23;20445;-62
2022/01/28 10:54:37;;;;;;;7.25;1.75;;;5.40;99.90;;;;;;6216117;23;20160;-63
2022/01/28 10:57:04;;;;;;;7.72;1.70;;;5.40;99.90;;;;;;6215958;23;20145;-63
2022/01/28 10:59:36;;;;;;;6.60;1.70;;;5.40;99.90;;;;;;6189773;23;20550;-63
2022/01/28 11:02:02;;;;;;;8.55;1.52;;;5.40;99.90;;;;;;6216170;23;20141;-62
2022/01/28 11:04:28;;;;;;;7.25;1.58;;;5.50;99.90;;;;;;6215790;23;20424;-63
2022/01/28 11:06:56;;;;;;;12.25;2.83;;;5.50;99.90;;;;;;6215762;23;20141;-62
2022/01/28 11:09:22;;;;;;;6.07;1.50;;;5.50;99.90;;;;;;6216209;23;20141;-62
2022/01/28 11:11:49;;;;;;;5.72;1.38;;;5.60;99.90;;;;;;6215796;23;20391;-61
2022/01/28 11:14:14;;;;;;;10.55;1.60;;;5.60;99.90;;;;;;6216030;23;20223;-63
2022/01/28 11:16:40;;;;;;;7.85;1.67;;;5.60;99.90;;;;;;6216411;23;20195;-62
2022/01/28 11:19:09;;;;;;;4.63;1.50;;;5.60;99.90;;;;;;6217274;23;20160;-61
2022/01/28 11:21:46;;;;;;;7.13;1.50;;;5.60;99.90;;;;;;6218184;23;20224;-62
2022/01/28 11:24:50;;;;;;;6.20;1.58;;;5.60;99.90;;;;;;6218020;23;20148;-62
2022/01/28 11:27:25;;;;;;;6.38;1.40;;;5.70;99.90;;;;;;6217724;23;20148;-61
2022/01/28 11:30:20;;;;;;;10.10;1.92;;;5.70;99.90;;;;;;6191361;23;20211;-62
2022/01/28 11:33:02;;;;;;;4.68;1.33;;;5.70;99.90;;;;;;6218114;23;20147;-62
2022/01/28 11:35:46;;;;;;;4.95;1.25;;;5.70;99.90;;;;;;6217405;23;20412;-63
2022/01/28 11:38:34;;;;;;;5.43;1.05;;;5.70;99.90;;;;;;6217983;23;20216;-62
2022/01/28 11:41:12;;;;;;;9.57;1.90;;;5.80;99.90;;;;;;6217884;23;20405;-62
2022/01/28 11:43:49;;;;;;;6.30;1.40;;;5.80;99.90;;;;;;6217818;23;20165;-63
2022/01/28 11:46:26;;;;;;;4.20;1.33;;;5.90;99.90;;;;;;6217271;23;20215;-63
2022/01/28 11:48:52;;;;;;;8.77;1.38;;;5.90;99.90;;;;;;6217357;23;20152;-63
2022/01/28 11:51:32;;;;;;;2.83;1.08;;;5.90;99.90;;;;;;6217078;23;20445;-64
2022/01/28 11:54:03;;;;;;;3.80;1.00;;;6.00;99.90;;;;;;6217124;23;20145;-63
2022/01/28 11:56:29;;;;;;;5.65;1.05;;;6.00;99.90;;;;;;6217285;23;20155;-63
2022/01/28 11:59:04;;;;;;;6.78;1.10;;;6.00;99.90;;;;;;6217184;23;20145;-63
2022/01/28 12:01:38;;;;;;;4.18;1.20;;;6.00;99.90;;;;;;6217110;23;20159;-63
2022/01/28 12:19:31;;;;;;;3.92;1.10;;;6.20;99.90;;;;;;5755099;23;20257;31
2022/01/28 12:33:06;;;;;;;6.55;1.70;;;6.20;99.90;;;;;;6319261;22;20200;31
2022/01/28 12:39:55;;;;;;;5.28;1.10;;;6.20;99.90;;;;;;6197010;22;20206;31
2022/01/28 12:47:40;;;;;;;6.97;1.20;;;6.00;99.90;;;;;;6345700;22;20194;-59
2022/01/28 12:59:03;;;;;;;5.97;1.20;;;5.90;99.90;;;;;;6241267;22;20532;-63
2022/01/28 13:01:29;;;;;;;5.63;1.17;;;5.90;99.90;;;;;;6255443;22;20152;-63
2022/01/28 13:04:17;;;;;;;7.75;1.38;;;5.90;99.90;;;;;;6255664;22;20148;-61
2022/01/28 13:07:00;;;;;;;4.88;1.08;;;5.90;99.90;;;;;;6255546;22;20190;-62
2022/01/28 13:09:25;;;;;;;4.32;1.00;;;5.90;99.90;;;;;;6255652;22;20439;-63
2022/01/28 13:11:56;;;;;;;4.43;1.00;;;5.90;99.90;;;;;;6255074;22;20180;-63
2022/01/28 13:14:27;;;;;;;5.00;1.15;;;5.90;99.90;;;;;;6255552;22;20544;-63
2022/01/28 13:16:53;;;;;;;7.22;1.25;;;5.90;99.90;;;;;;6255282;22;20442;-63
2022/01/28 13:19:18;;;;;;;4.20;1.10;;;5.90;99.90;;;;;;6255273;22;20147;-63
2022/01/28 13:21:46;;;;;;;3.13;1.15;;;5.90;99.90;;;;;;6255374;22;20151;-63
2022/01/28 13:24:20;;;;;;;3.08;1.10;;;5.80;99.90;;;;;;6254014;23;20206;-62
2022/01/28 13:26:57;;;;;;;4.05;1.10;;;5.90;99.90;;;;;;6255075;22;20139;-63
2022/01/28 13:29:31;;;;;;;9.48;1.60;;;5.80;99.90;;;;;;6255205;22;20197;-63
2022/01/28 13:31:58;;;;;;;5.68;1.55;;;5.80;99.90;;;;;;6255501;22;20163;-63
2022/01/28 13:34:25;;;;;;;5.78;1.00;;;5.80;99.90;;;;;;6255389;22;20140;-63
2022/01/28 13:36:52;;;;;;;5.22;1.10;;;5.80;99.90;;;;;;6255098;22;20214;-62
2022/01/28 13:39:24;;;;;;;9.73;1.70;;;5.70;99.90;;;;;;6255408;22;20222;-62
2022/01/28 13:42:06;;;;;;;6.32;1.30;;;5.70;99.90;;;;;;6255193;22;20227;-62
2022/01/28 13:44:33;;;;;;;5.28;1.20;;;5.70;99.90;;;;;;6255347;22;20435;-63
2022/01/28 13:47:03;;;;;;;4.75;1.05;;;5.70;99.90;;;;;;6255126;22;20233;-62
2022/01/28 13:49:29;;;;;;;4.05;0.90;;;5.70;99.90;;;;;;6255061;22;20144;-63
2022/01/28 13:52:06;;;;;;;3.20;1.40;;;5.60;99.90;;;;;;6254929;22;20144;-62
2022/01/28 13:54:32;;;;;;;10.52;1.60;;;5.60;99.90;;;;;;6254882;22;20146;-63
2022/01/28 13:57:02;;;;;;;4.32;1.05;;;5.60;99.90;;;;;;6254751;22;20525;-62
2022/01/28 13:59:31;;;;;;;6.07;1.58;;;5.50;99.90;;;;;;6254795;22;20167;-62
2022/01/28 14:01:59;;;;;;;6.25;1.00;;;5.50;99.90;;;;;;6255042;22;20164;-63
2022/01/28 14:04:35;;;;;;;5.75;1.52;;;5.50;99.90;;;;;;6254776;22;20136;-63
2022/01/28 14:07:21;;;;;;;12.60;1.65;;;5.50;99.90;;;;;;6254868;22;20424;-63
2022/01/28 14:09:50;;;;;;;6.28;1.45;;;5.40;99.90;;;;;;6249775;22;20179;-63
2022/01/28 14:15:10;;;;;;;7.55;2.00;;;5.30;99.90;;;;;;6248204;22;20303;-63
2022/01/28 14:17:36;;;;;;;7.97;1.88;;;5.30;99.90;;;;;;6247981;22;20183;-63
2022/01/28 14:20:02;;;;;;;9.75;1.75;;;5.30;99.90;;;;;;6248074;22;20557;-63
2022/01/28 14:22:27;;;;;;;6.85;1.30;;;5.30;99.90;;;;;;6248066;22;20456;-63
2022/01/28 14:24:53;;;;;;;8.32;1.50;;;5.20;99.90;;;;;;6248282;22;20144;-63
2022/01/28 14:27:47;;;;;;;4.00;1.20;;;5.20;99.90;;;;;;6247909;22;20143;-63
2022/01/28 14:30:18;;;;;;;6.05;1.40;;;5.10;99.90;;;;;;6247708;22;20144;-63
2022/01/28 14:32:43;;;;;;;7.88;1.70;;;5.10;99.90;;;;;;6248121;22;20124;-61
2022/01/28 14:35:09;;;;;;;7.80;1.30;;;5.00;99.90;;;;;;6247855;22;20155;-60
2022/01/28 14:37:39;;;;;;;9.30;1.92;;;5.00;99.90;;;;;;6247582;22;20237;-59
2022/01/28 14:40:09;;;;;;;6.45;1.58;;;5.00;99.90;;;;;;6248754;22;20144;-60
2022/01/28 14:42:35;;;;;;;8.52;1.63;;;4.90;99.90;;;;;;6248168;22;20206;-61
2022/01/28 14:45:00;;;;;;;7.30;1.70;;;4.90;99.90;;;;;;6247608;22;20144;-60
2022/01/28 14:47:26;;;;;;;10.23;1.73;;;4.80;99.90;;;;;;6247522;22;20509;-60
2022/01/28 14:49:52;;;;;;;10.75;1.80;;;4.80;99.90;;;;;;6247664;22;20560;-60
2022/01/28 14:52:20;;;;;;;9.23;1.80;;;4.70;99.90;;;;;;6247917;22;20175;-60
2022/01/28 14:54:47;;;;;;;11.07;2.55;;;4.70;99.90;;;;;;6247780;22;20163;-60
2022/01/28 14:57:13;;;;;;;9.45;1.98;;;4.60;99.90;;;;;;6247619;22;20239;-60